Los Coyotes (210) Station Data

Red Flag Warning: No
Fire Weather Zone: 258
SDGE Region: Ramona
Lat/Lon: 33.258/-116.585

Observations

Time Wind Speed/Gust Temp(F) RH Fuel Moist Fuel Temp(F) Dewpt(F) Tmax(F) Tmin(F) Accum Precip 10-min Precip SL Press(mb)
5/24 8:30am 279 5 G 11 69° 35% - - 40° 70.1° 60.8° - - -
5/24 8:20am 262 4 G 11 69° 35% - - 40° 70.1° 60.8° - - -
5/24 8:10am 302 2 G 6 69° 37% - - 41° 69° 60.8° - - -
5/24 8:00am 230 1 G 3 68° 38% - - 42° 68.9° 60.8° - - -
5/24 7:50am 155 2 G 5 67° 38% - - 40° 68.5° 60.8° - - -
5/24 7:40am 95 2 G 4 65° 40% - - 40° 68.5° 60.8° - - -
5/24 7:30am 186 1 G 4 65° 40% - - 41° 68.5° 60.8° - - -
5/24 7:20am 197 0 G 3 66° 38% - - 40° 68.5° 60.8° - - -
5/24 7:10am 286 1 G 2 66° 37% - - 39° 68.5° 60.8° - - -
5/24 7:00am 30 2 G 5 67° 33% - - 37° 68.5° 60.8° - - -
5/24 6:50am 41 3 G 5 65° 34% - - 37° 68.5° 60.8° - - -
5/24 6:40am 75 2 G 4 65° 34% - - 36° 68.5° 60.8° - - -
5/24 6:30am 66 2 G 4 64° 32% - - 34° 68.5° 60.8° - - -
5/24 6:20am 360 4 G 6 62° 32% - - 32° 68.5° 60.8° - - -
5/24 6:10am 355 3 G 5 61° 36% - - 34° 68.5° 60.8° - - -
5/24 6:00am 12 2 G 5 63° 35% - - 34° 68.5° 61.2° - - -
5/24 5:50am 24 4 G 5 64° 36% - - 36° 68.5° 61.5° - - -
5/24 5:40am 352 5 G 7 63° 37% - - 37° 68.5° 61.5° - - -
5/24 5:30am 355 4 G 6 63° 37% - - 37° 68.5° 61.5° - - -
5/24 5:20am 344 3 G 5 63° 37% - - 36° 68.5° 61.5° - - -
5/24 5:10am 359 2 G 4 62° 37% - - 36° 68.5° 61.5° - - -
5/24 5:00am 322 1 G 3 63° 38% - - 37° 68.5° 61.5° - - -
5/24 4:50am 354 2 G 4 63° 39% - - 38° 68.5° 61.5° - - -
5/24 4:40am 63 3 G 6 64° 39% - - 38° 68.5° 61.5° - - -
5/24 4:30am 359 3 G 5 64° 41% - - 40° 68.5° 61.5° - - -
5/24 4:20am 61 3 G 5 63° 39% - - 38° 68.5° 61.5° - - -
5/24 4:10am 63 1 G 3 62° 40% - - 38° 68.5° 61.5° - - -
5/24 4:00am 126 1 G 5 63° 37% - - 36° 68.5° 61.7° - - -
5/24 3:50am 99 5 G 8 63° 35% - - 35° 68.5° 61.8° - - -
5/24 3:40am 66 4 G 7 62° 35% - - 34° 68.5° 61.8° - - -
5/24 3:30am 102 3 G 4 62° 36% - - 35° 68.5° 61.8° - - -
5/24 3:20am 192 1 G 2 63° 27% - - 29° 68.5° 61.9° - - -
5/24 3:10am 354 2 G 4 64° 25% - - 28° 68.5° 63.5° - - -
5/24 3:00am 40 3 G 5 64° 29% - - 31° 68.5° 63.6° - - -
5/24 2:50am 53 2 G 7 64° 30% - - 32° 68.5° 63.8° - - -
5/24 2:40am 34 1 G 3 65° 35% - - 36° 68.5° 64.1° - - -
5/24 2:30am 273 1 G 2 65° 37% - - 38° 68.5° 64.1° - - -
5/24 2:20am 225 1 G 3 66° 38% - - 40° 68.5° 64.1° - - -
5/24 2:10am 339 2 G 4 66° 39% - - 40° 68.5° 64.1° - - -
5/24 2:00am 46 3 G 7 66° 39% - - 41° 68.5° 64.1° - - -
5/24 1:50am 55 4 G 7 67° 38% - - 41° 68.5° 64.1° - - -
5/24 1:40am 331 4 G 8 68° 38% - - 42° 68.5° 64.1° - - -
5/24 1:30am 305 6 G 10 68° 39% - - 42° 68.5° 64.1° - - -
5/24 1:20am 340 3 G 6 67° 39% - - 41° 67.2° 64.1° - - -
5/24 1:10am 10 2 G 4 66° 39% - - 40° 66.6° 64.1° - - -
5/24 1:00am 28 2 G 5 65° 41% - - 40° 66.2° 64.1° - - -
5/24 12:50am 57 2 G 4 65° 39% - - 40° 66.2° 64.1° - - -
5/24 12:40am 54 5 G 7 65° 40% - - 40° 66.2° 64.1° - - -
5/24 12:30am 78 3 G 5 65° 40% - - 40° 66.2° 64.5° - - -
5/24 12:20am 73 5 G 6 65° 37% - - 38° 66.2° 64.6° - - -
5/24 12:10am 84 3 G 5 66° 35% - - 37° 66.2° 65.2° - - -
5/24 12:00am 113 3 G 5 67° 34% - - 37° 90.6° 63.3° - - -
5/23 11:50pm 32 1 G 2 67° 33% - - 37° 90.6° 63.3° - - -
5/23 11:40pm 58 2 G 4 67° 32% - - 37° 90.6° 63.3° - - -
5/23 11:30pm 347 1 G 5 68° 33% - - 38° 90.6° 63.3° - - -
5/23 11:20pm 57 3 G 6 68° 34% - - 39° 90.6° 63.3° - - -
5/23 11:10pm 44 3 G 7 68° 35% - - 39° 90.6° 63.3° - - -
5/23 11:00pm 45 4 G 6 67° 36% - - 39° 90.6° 63.3° - - -
5/23 10:50pm 69 3 G 4 67° 35% - - 39° 90.6° 63.3° - - -
5/23 10:40pm 33 1 G 3 67° 35% - - 39° 90.6° 63.3° - - -
5/23 10:30pm 64 3 G 5 68° 34% - - 39° 90.6° 63.3° - - -
5/23 10:20pm 76 2 G 5 69° 32% - - 38° 90.6° 63.3° - - -
5/23 10:10pm 121 1 G 3 70° 31% - - 38° 90.6° 63.3° - - -
5/23 10:00pm 353 1 G 2 68° 32% - - 37° 90.6° 63.3° - - -
5/23 9:50pm 18 2 G 5 69° 31% - - 37° 90.6° 63.3° - - -
5/23 9:40pm 86 4 G 7 70° 31% - - 38° 90.6° 63.3° - - -
5/23 9:30pm 74 5 G 6 70° 30% - - 37° 90.6° 63.3° - - -
5/23 9:20pm 51 3 G 5 71° 28% - - 36° 90.6° 63.3° - - -
5/23 9:10pm 312 4 G 7 72° 29% - - 38° 90.6° 63.3° - - -
5/23 9:00pm 308 5 G 7 72° 26% - - 35° 90.6° 63.3° - - -
5/23 8:50pm 306 4 G 6 71° 23% - - 31° 90.6° 63.3° - - -
5/23 8:40pm 313 4 G 5 71° 23% - - 32° 90.6° 63.3° - - -
5/23 8:30pm 308 5 G 6 72° 27% - - 36° 90.6° 63.3° - - -
5/23 8:20pm 304 5 G 7 72° 30% - - 39° 90.6° 63.3° - - -
5/23 8:10pm 306 5 G 6 72° 31% - - 40° 90.6° 63.3° - - -
5/23 8:00pm 306 5 G 7 73° 32% - - 41° 90.6° 63.3° - - -
5/23 7:50pm 303 5 G 8 73° 33% - - 42° 90.6° 63.3° - - -
5/23 7:40pm 312 5 G 6 74° 32% - - 43° 90.6° 63.3° - - -
5/23 7:30pm 293 4 G 7 75° 32% - - 43° 90.6° 63.3° - - -
5/23 7:20pm 265 5 G 7 77° 30% - - 43° 90.6° 63.3° - - -
5/23 7:10pm 267 4 G 8 79° 25% - - 40° 90.6° 63.3° - - -
5/23 7:00pm 280 5 G 9 79° 23% - - 38° 90.6° 63.3° - - -
5/23 6:50pm 284 6 G 12 79° 23% - - 39° 90.6° 63.3° - - -
5/23 6:40pm 272 5 G 10 79° 25% - - 41° 90.6° 63.3° - - -
5/23 6:30pm 286 6 G 10 80° 26% - - 42° 90.6° 63.3° - - -
5/23 6:20pm 273 7 G 10 80° 26% - - 42° 90.6° 63.3° - - -
5/23 6:10pm 257 6 G 10 80° 27% - - 43° 90.6° 63.3° - - -
5/23 6:00pm 277 7 G 13 80° 26% - - 42° 90.6° 63.3° - - -
5/23 5:50pm 255 6 G 11 81° 28% - - 45° 90.6° 63.3° - - -
5/23 5:40pm 259 6 G 13 81° 28% - - 45° 90.6° 63.3° - - -
5/23 5:30pm 254 6 G 11 81° 28% - - 45° 90.6° 63.3° - - -
5/23 5:20pm 257 6 G 12 81° 30% - - 46° 90.6° 63.3° - - -
5/23 5:10pm 269 6 G 12 80° 31% - - 47° 90.6° 63.3° - - -
5/23 5:00pm 272 7 G 13 80° 32% - - 48° 90.6° 63.3° - - -
5/23 4:50pm 261 7 G 14 81° 32% - - 49° 90.6° 63.3° - - -
5/23 4:40pm 254 6 G 14 81° 32% - - 48° 90.6° 63.3° - - -
5/23 4:30pm 248 6 G 14 81° 32% - - 48° 90.6° 63.3° - - -
5/23 4:20pm 253 7 G 14 82° 30% - - 47° 90.6° 63.3° - - -
5/23 4:10pm 261 8 G 14 81° 28% - - 45° 90.6° 63.3° - - -
5/23 4:00pm 267 7 G 15 82° 26% - - 45° 90.6° 63.3° - - -
5/23 3:50pm 248 7 G 12 84° 25% - - 45° 90.6° 63.3° - - -
5/23 3:40pm 247 9 G 17 84° 24% - - 43° 90.6° 63.3° - - -
5/23 3:30pm 256 9 G 16 85° 17% - - 35° 90.6° 63.3° - - -
5/23 3:20pm 253 9 G 17 87° 15% - - 34° 90.6° 63.3° - - -
5/23 3:10pm 244 7 G 16 88° 14% - - 32° 90.6° 63.3° - - -
5/23 3:00pm 247 8 G 16 87° 14% - - 33° 90.6° 63.3° - - -
5/23 2:50pm 257 9 G 18 87° 14% - - 32° 90.6° 63.3° - - -
5/23 2:40pm 272 9 G 16 87° 14% - - 32° 90.6° 63.3° - - -
5/23 2:30pm 264 8 G 18 87° 13% - - 30° 90.6° 63.3° - - -
5/23 2:20pm 266 9 G 18 88° 13% - - 30° 90.6° 63.3° - - -
5/23 2:10pm 246 7 G 15 89° 13% - - 31° 90.6° 63.3° - - -
5/23 2:00pm 219 6 G 12 89° 13% - - 31° 90.6° 63.3° - - -
5/23 1:50pm 204 5 G 15 89° 10% - - 26° 90.6° 63.3° - - -
5/23 1:40pm 146 8 G 17 88° 9% - - 23° 89.4° 63.3° - - -
5/23 1:30pm 154 5 G 13 89° 9% - - 23° 89.4° 63.3° - - -
5/23 1:20pm 239 5 G 10 89° 9% - - 23° 89.4° 63.3° - - -
5/23 1:10pm 197 8 G 13 89° 9% - - 23° 89.4° 63.3° - - -
5/23 1:00pm 187 6 G 21 89° 9% - - 22° 89.4° 63.3° - - -
5/23 12:50pm 149 4 G 9 88° 9% - - 22° 88.8° 63.3° - - -
5/23 12:40pm 141 8 G 17 88° 9% - - 22° 88.8° 63.3° - - -
5/23 12:30pm 160 9 G 18 88° 9% - - 22° 88.8° 63.3° - - -
5/23 12:20pm 169 8 G 16 88° 9% - - 23° 88.8° 63.3° - - -
5/23 12:10pm 159 9 G 21 87° 9% - - 22° 88.8° 63.3° - - -
5/23 12:00pm 155 11 G 20 87° 9% - - 20° 88.8° 63.3° - - -
5/23 11:50am 153 11 G 20 87° 9% - - 21° 88.8° 63.3° - - -
5/23 11:40am 173 8 G 15 87° 9% - - 21° 88.8° 63.3° - - -
5/23 11:30am 161 9 G 15 87° 9% - - 21° 88.8° 63.3° - - -
5/23 11:20am 161 9 G 17 87° 9% - - 22° 88.8° 63.3° - - -
5/23 11:10am 178 6 G 15 88° 10% - - 24° 88.8° 63.3° - - -
5/23 11:00am 185 5 G 13 87° 11% - - 25° 87.8° 63.3° - - -
5/23 10:50am 208 4 G 10 87° 12% - - 29° 87.6° 63.3° - - -
5/23 10:40am 240 4 G 11 86° 12% - - 28° 87.3° 63.3° - - -
5/23 10:30am 234 4 G 7 86° 12% - - 29° 87° 63.3° - - -
5/23 10:20am 235 5 G 11 86° 13% - - 29° 86.8° 63.3° - - -
5/23 10:10am 214 4 G 9 86° 13% - - 29° 86.8° 63.3° - - -
5/23 10:00am 248 4 G 9 85° 13% - - 29° 85.7° 63.3° - - -
5/23 9:50am 225 3 G 6 85° 15% - - 31° 85.5° 63.3° - - -
5/23 9:40am 209 3 G 6 84° 15% - - 32° 84.6° 63.3° - - -
5/23 9:30am 211 3 G 6 84° 19% - - 37° 84.3° 63.3° - - -
5/23 9:20am 232 2 G 5 83° 23% - - 40° 83.7° 63.3° - - -
5/23 9:10am 222 1 G 4 81° 26% - - 42° 81.5° 63.3° - - -
5/23 9:00am 229 1 G 2 80° 23% - - 38° 80.4° 63.3° - - -
5/23 8:50am 214 0 G 2 77° 30% - - 44° 78.2° 63.3° - - -
5/23 8:40am 338 1 G 2 75° 31% - - 43° 77.7° 63.3° - - -
5/23 8:30am 226 1 G 3 76° 30% - - 42° 77.7° 63.3° - - -
5/23 8:20am 236 1 G 2 77° 23% - - 36° 77.7° 63.3° - - -
5/23 8:10am 340 0 G 1 77° 19% - - 31° 77.5° 63.3° - - -
5/23 8:00am 308 0 G 1 76° 18% - - 29° 76.4° 63.3° - - -
5/23 7:50am 348 0 G 1 75° 18% - - 29° 75.7° 63.3° - - -
5/23 7:40am 0 0 G 0 74° 20% - - 31° 74.4° 63.3° - - -
5/23 7:30am 21 1 G 2 73° 20% - - 29° 73.9° 63.3° - - -
5/23 7:20am 27 1 G 3 72° 20% - - 30° 73.4° 63.3° - - -
5/23 7:10am 18 1 G 3 73° 20% - - 30° 73.4° 63.3° - - -
5/23 7:00am 8 2 G 3 71° 22% - - 29° 72.3° 63.3° - - -
5/23 6:50am 345 2 G 4 70° 23% - - 31° 70.4° 63.3° - - -
5/23 6:40am 22 1 G 2 69° 24% - - 31° 70.4° 63.3° - - -
5/23 6:30am 16 1 G 4 66° 27% - - 32° 67.6° 63.3° - - -
5/23 6:20am 24 1 G 2 67° 27% - - 32° 67.4° 63.3° - - -
5/23 6:10am 6 1 G 4 66° 28% - - 32° 67.4° 63.3° - - -
5/23 6:00am 358 3 G 4 67° 27% - - 32° 67.4° 63.3° - - -